sensor_id;sensor_type;location;lat;lon;timestamp;temperature;humidity
51863;DHT22;37900;52.996;6.278;2024-01-06T00:02:15;15.60;93.50
51863;DHT22;37900;52.996;6.278;2024-01-06T00:04:42;15.60;93.40
51863;DHT22;37900;52.996;6.278;2024-01-06T00:07:07;15.60;93.40
51863;DHT22;37900;52.996;6.278;2024-01-06T00:09:33;15.50;93.30
51863;DHT22;37900;52.996;6.278;2024-01-06T00:11:59;15.50;93.30
51863;DHT22;37900;52.996;6.278;2024-01-06T00:14:24;15.50;93.30
51863;DHT22;37900;52.996;6.278;2024-01-06T00:16:50;15.50;93.20
51863;DHT22;37900;52.996;6.278;2024-01-06T00:19:16;15.50;93.20
51863;DHT22;37900;52.996;6.278;2024-01-06T00:21:43;15.50;93.20
51863;DHT22;37900;52.996;6.278;2024-01-06T00:24:09;15.50;93.10
51863;DHT22;37900;52.996;6.278;2024-01-06T00:26:34;15.50;93.10
51863;DHT22;37900;52.996;6.278;2024-01-06T00:29:00;15.50;93.10
51863;DHT22;37900;52.996;6.278;2024-01-06T00:31:26;15.50;93.00
51863;DHT22;37900;52.996;6.278;2024-01-06T00:33:51;15.50;93.00
51863;DHT22;37900;52.996;6.278;2024-01-06T00:36:17;15.50;93.00
51863;DHT22;37900;52.996;6.278;2024-01-06T00:38:43;15.50;92.90
51863;DHT22;37900;52.996;6.278;2024-01-06T00:41:09;15.50;92.90
51863;DHT22;37900;52.996;6.278;2024-01-06T00:43:34;15.50;92.80
51863;DHT22;37900;52.996;6.278;2024-01-06T00:46:00;15.50;92.80
51863;DHT22;37900;52.996;6.278;2024-01-06T00:48:26;15.40;92.70
51863;DHT22;37900;52.996;6.278;2024-01-06T00:50:51;15.50;92.70
51863;DHT22;37900;52.996;6.278;2024-01-06T00:53:17;15.50;92.70
51863;DHT22;37900;52.996;6.278;2024-01-06T00:55:43;15.40;92.60
51863;DHT22;37900;52.996;6.278;2024-01-06T00:58:09;15.40;92.60
51863;DHT22;37900;52.996;6.278;2024-01-06T01:00:34;15.40;92.50
51863;DHT22;37900;52.996;6.278;2024-01-06T01:03:00;15.40;92.50
51863;DHT22;37900;52.996;6.278;2024-01-06T01:05:26;15.40;92.50
51863;DHT22;37900;52.996;6.278;2024-01-06T01:07:51;15.40;92.40
51863;DHT22;37900;52.996;6.278;2024-01-06T01:10:17;15.40;92.40
51863;DHT22;37900;52.996;6.278;2024-01-06T01:12:43;15.40;92.30
51863;DHT22;37900;52.996;6.278;2024-01-06T01:15:08;15.40;92.30
51863;DHT22;37900;52.996;6.278;2024-01-06T01:17:34;15.40;92.30
51863;DHT22;37900;52.996;6.278;2024-01-06T01:20:01;15.40;92.20
51863;DHT22;37900;52.996;6.278;2024-01-06T01:22:26;15.40;92.20
51863;DHT22;37900;52.996;6.278;2024-01-06T01:24:52;15.40;92.10
51863;DHT22;37900;52.996;6.278;2024-01-06T01:27:18;15.40;92.10
51863;DHT22;37900;52.996;6.278;2024-01-06T01:29:43;15.40;92.10
51863;DHT22;37900;52.996;6.278;2024-01-06T01:32:09;15.30;92.00
51863;DHT22;37900;52.996;6.278;2024-01-06T01:34:35;15.30;92.00
51863;DHT22;37900;52.996;6.278;2024-01-06T01:37:00;15.30;91.90
51863;DHT22;37900;52.996;6.278;2024-01-06T01:39:26;15.40;91.90
51863;DHT22;37900;52.996;6.278;2024-01-06T01:41:52;15.30;91.90
51863;DHT22;37900;52.996;6.278;2024-01-06T01:44:17;15.30;91.90
51863;DHT22;37900;52.996;6.278;2024-01-06T01:46:43;15.30;91.80
51863;DHT22;37900;52.996;6.278;2024-01-06T01:49:09;15.30;91.80
51863;DHT22;37900;52.996;6.278;2024-01-06T01:51:36;15.30;91.80
51863;DHT22;37900;52.996;6.278;2024-01-06T01:54:04;15.30;91.70
51863;DHT22;37900;52.996;6.278;2024-01-06T01:56:31;15.30;91.70
51863;DHT22;37900;52.996;6.278;2024-01-06T01:59:03;15.30;91.70
51863;DHT22;37900;52.996;6.278;2024-01-06T02:01:30;15.30;91.60
51863;DHT22;37900;52.996;6.278;2024-01-06T02:03:57;15.30;91.60
51863;DHT22;37900;52.996;6.278;2024-01-06T02:06:23;15.30;91.60
51863;DHT22;37900;52.996;6.278;2024-01-06T02:08:49;15.40;91.60
51863;DHT22;37900;52.996;6.278;2024-01-06T02:11:14;15.20;91.50
51863;DHT22;37900;52.996;6.278;2024-01-06T02:13:40;15.20;91.50
51863;DHT22;37900;52.996;6.278;2024-01-06T02:16:06;15.20;91.50
51863;DHT22;37900;52.996;6.278;2024-01-06T02:18:32;15.20;91.40
51863;DHT22;37900;52.996;6.278;2024-01-06T02:21:00;15.20;91.40
51863;DHT22;37900;52.996;6.278;2024-01-06T02:23:26;15.20;91.40
51863;DHT22;37900;52.996;6.278;2024-01-06T02:25:52;15.20;91.40
51863;DHT22;37900;52.996;6.278;2024-01-06T02:28:18;15.20;91.30
51863;DHT22;37900;52.996;6.278;2024-01-06T02:30:44;15.20;91.30
51863;DHT22;37900;52.996;6.278;2024-01-06T02:33:09;15.20;91.30
51863;DHT22;37900;52.996;6.278;2024-01-06T02:35:35;15.20;91.30
51863;DHT22;37900;52.996;6.278;2024-01-06T02:38:01;15.20;91.20
51863;DHT22;37900;52.996;6.278;2024-01-06T02:40:27;15.10;91.20
51863;DHT22;37900;52.996;6.278;2024-01-06T02:42:53;15.20;91.20
51863;DHT22;37900;52.996;6.278;2024-01-06T02:45:19;15.20;91.20
51863;DHT22;37900;52.996;6.278;2024-01-06T02:47:44;15.20;91.10
51863;DHT22;37900;52.996;6.278;2024-01-06T02:50:10;15.10;91.10
51863;DHT22;37900;52.996;6.278;2024-01-06T02:52:36;15.20;91.10
51863;DHT22;37900;52.996;6.278;2024-01-06T02:55:02;15.10;91.20
51863;DHT22;37900;52.996;6.278;2024-01-06T02:57:29;15.20;91.20
51863;DHT22;37900;52.996;6.278;2024-01-06T02:59:55;15.20;91.20
51863;DHT22;37900;52.996;6.278;2024-01-06T03:02:21;15.20;91.20
51863;DHT22;37900;52.996;6.278;2024-01-06T03:04:47;15.20;91.20
51863;DHT22;37900;52.996;6.278;2024-01-06T03:07:12;15.20;91.20
51863;DHT22;37900;52.996;6.278;2024-01-06T03:09:38;15.30;91.20
51863;DHT22;37900;52.996;6.278;2024-01-06T03:12:06;15.30;91.10
51863;DHT22;37900;52.996;6.278;2024-01-06T03:14:36;15.20;91.10
51863;DHT22;37900;52.996;6.278;2024-01-06T03:17:01;15.20;91.10
51863;DHT22;37900;52.996;6.278;2024-01-06T03:19:28;15.30;91.10
51863;DHT22;37900;52.996;6.278;2024-01-06T03:21:54;15.20;91.00
51863;DHT22;37900;52.996;6.278;2024-01-06T03:24:23;15.20;91.00
51863;DHT22;37900;52.996;6.278;2024-01-06T03:26:49;15.20;91.00
51863;DHT22;37900;52.996;6.278;2024-01-06T03:29:16;15.20;91.00
51863;DHT22;37900;52.996;6.278;2024-01-06T03:31:43;15.20;90.90
51863;DHT22;37900;52.996;6.278;2024-01-06T03:34:09;15.20;90.90
51863;DHT22;37900;52.996;6.278;2024-01-06T03:36:37;15.10;90.80
51863;DHT22;37900;52.996;6.278;2024-01-06T03:39:03;15.10;90.80
51863;DHT22;37900;52.996;6.278;2024-01-06T03:41:30;15.10;90.80
51863;DHT22;37900;52.996;6.278;2024-01-06T03:43:55;15.10;90.70
51863;DHT22;37900;52.996;6.278;2024-01-06T03:46:22;15.10;90.70
51863;DHT22;37900;52.996;6.278;2024-01-06T03:48:47;15.10;90.70
51863;DHT22;37900;52.996;6.278;2024-01-06T03:51:13;15.10;90.70
51863;DHT22;37900;52.996;6.278;2024-01-06T03:53:39;15.10;90.70
51863;DHT22;37900;52.996;6.278;2024-01-06T03:56:06;15.10;90.70
51863;DHT22;37900;52.996;6.278;2024-01-06T03:58:32;15.10;90.70
51863;DHT22;37900;52.996;6.278;2024-01-06T04:00:57;15.10;90.70
51863;DHT22;37900;52.996;6.278;2024-01-06T04:03:23;15.10;90.70
51863;DHT22;37900;52.996;6.278;2024-01-06T04:05:49;15.10;90.70
51863;DHT22;37900;52.996;6.278;2024-01-06T04:08:15;15.10;90.70
51863;DHT22;37900;52.996;6.278;2024-01-06T04:10:41;15.20;90.70
51863;DHT22;37900;52.996;6.278;2024-01-06T04:13:07;15.10;90.60
51863;DHT22;37900;52.996;6.278;2024-01-06T04:15:33;15.20;90.90
51863;DHT22;37900;52.996;6.278;2024-01-06T04:18:02;15.10;90.60
51863;DHT22;37900;52.996;6.278;2024-01-06T04:20:29;15.10;90.60
51863;DHT22;37900;52.996;6.278;2024-01-06T04:22:54;15.10;90.60
51863;DHT22;37900;52.996;6.278;2024-01-06T04:25:20;15.10;90.50
51863;DHT22;37900;52.996;6.278;2024-01-06T04:27:47;15.10;90.50
51863;DHT22;37900;52.996;6.278;2024-01-06T04:30:14;15.00;90.40
51863;DHT22;37900;52.996;6.278;2024-01-06T04:32:40;15.10;90.50
51863;DHT22;37900;52.996;6.278;2024-01-06T04:35:06;15.10;90.70
51863;DHT22;37900;52.996;6.278;2024-01-06T04:37:32;15.10;90.40
51863;DHT22;37900;52.996;6.278;2024-01-06T04:39:57;15.10;90.40
51863;DHT22;37900;52.996;6.278;2024-01-06T04:42:23;15.00;90.30
51863;DHT22;37900;52.996;6.278;2024-01-06T04:44:49;15.10;90.30
51863;DHT22;37900;52.996;6.278;2024-01-06T04:47:15;15.00;90.30
51863;DHT22;37900;52.996;6.278;2024-01-06T04:49:41;15.10;90.30
51863;DHT22;37900;52.996;6.278;2024-01-06T04:52:07;15.10;90.30
51863;DHT22;37900;52.996;6.278;2024-01-06T04:54:33;15.10;90.40
51863;DHT22;37900;52.996;6.278;2024-01-06T04:56:59;15.10;90.30
51863;DHT22;37900;52.996;6.278;2024-01-06T04:59:24;15.10;90.30
51863;DHT22;37900;52.996;6.278;2024-01-06T05:01:53;15.10;90.30
51863;DHT22;37900;52.996;6.278;2024-01-06T05:04:19;15.10;90.30
51863;DHT22;37900;52.996;6.278;2024-01-06T05:06:45;15.10;90.30
51863;DHT22;37900;52.996;6.278;2024-01-06T05:09:10;15.10;90.30
51863;DHT22;37900;52.996;6.278;2024-01-06T05:11:36;15.10;90.20
51863;DHT22;37900;52.996;6.278;2024-01-06T05:14:02;15.10;90.20
51863;DHT22;37900;52.996;6.278;2024-01-06T05:16:28;15.10;90.20
51863;DHT22;37900;52.996;6.278;2024-01-06T05:18:54;15.10;90.20
51863;DHT22;37900;52.996;6.278;2024-01-06T05:21:20;15.10;90.20
51863;DHT22;37900;52.996;6.278;2024-01-06T05:23:46;15.10;90.10
51863;DHT22;37900;52.996;6.278;2024-01-06T05:26:11;15.00;90.10
51863;DHT22;37900;52.996;6.278;2024-01-06T05:28:39;15.00;90.40
51863;DHT22;37900;52.996;6.278;2024-01-06T05:31:05;15.00;90.10
51863;DHT22;37900;52.996;6.278;2024-01-06T05:33:31;15.00;90.10
51863;DHT22;37900;52.996;6.278;2024-01-06T05:35:57;15.00;90.10
51863;DHT22;37900;52.996;6.278;2024-01-06T05:38:23;15.10;90.10
51863;DHT22;37900;52.996;6.278;2024-01-06T05:40:48;15.10;90.10
51863;DHT22;37900;52.996;6.278;2024-01-06T05:43:15;15.10;90.10
51863;DHT22;37900;52.996;6.278;2024-01-06T05:45:40;15.10;90.10
51863;DHT22;37900;52.996;6.278;2024-01-06T05:48:09;15.10;90.00
51863;DHT22;37900;52.996;6.278;2024-01-06T05:50:39;15.10;90.00
51863;DHT22;37900;52.996;6.278;2024-01-06T05:53:06;15.10;90.00
51863;DHT22;37900;52.996;6.278;2024-01-06T05:55:32;15.10;90.00
51863;DHT22;37900;52.996;6.278;2024-01-06T05:57:57;15.10;90.00
51863;DHT22;37900;52.996;6.278;2024-01-06T06:00:23;15.00;89.90
51863;DHT22;37900;52.996;6.278;2024-01-06T06:02:49;15.10;90.00
51863;DHT22;37900;52.996;6.278;2024-01-06T06:05:15;15.00;89.90
51863;DHT22;37900;52.996;6.278;2024-01-06T06:07:40;15.00;89.90
51863;DHT22;37900;52.996;6.278;2024-01-06T06:10:11;15.00;89.90
51863;DHT22;37900;52.996;6.278;2024-01-06T06:12:37;15.00;89.80
51863;DHT22;37900;52.996;6.278;2024-01-06T06:15:04;15.00;89.80
51863;DHT22;37900;52.996;6.278;2024-01-06T06:17:30;15.00;89.70
51863;DHT22;37900;52.996;6.278;2024-01-06T06:19:57;15.00;89.70
51863;DHT22;37900;52.996;6.278;2024-01-06T06:22:23;15.00;89.70
51863;DHT22;37900;52.996;6.278;2024-01-06T06:24:51;15.00;89.70
51863;DHT22;37900;52.996;6.278;2024-01-06T06:27:17;15.00;89.70
51863;DHT22;37900;52.996;6.278;2024-01-06T06:29:43;15.00;89.60
51863;DHT22;37900;52.996;6.278;2024-01-06T06:32:08;15.10;89.60
51863;DHT22;37900;52.996;6.278;2024-01-06T06:34:34;15.00;89.60
51863;DHT22;37900;52.996;6.278;2024-01-06T06:37:00;15.00;89.60
51863;DHT22;37900;52.996;6.278;2024-01-06T06:39:25;15.00;89.50
51863;DHT22;37900;52.996;6.278;2024-01-06T06:41:52;15.00;89.50
51863;DHT22;37900;52.996;6.278;2024-01-06T06:44:18;15.00;89.40
51863;DHT22;37900;52.996;6.278;2024-01-06T06:46:44;15.00;89.40
51863;DHT22;37900;52.996;6.278;2024-01-06T06:49:09;15.00;89.40
51863;DHT22;37900;52.996;6.278;2024-01-06T06:51:35;15.00;89.40
51863;DHT22;37900;52.996;6.278;2024-01-06T06:54:01;15.00;89.40
51863;DHT22;37900;52.996;6.278;2024-01-06T06:56:26;15.00;89.30
51863;DHT22;37900;52.996;6.278;2024-01-06T06:58:52;15.00;89.30
51863;DHT22;37900;52.996;6.278;2024-01-06T07:01:18;15.00;89.30
51863;DHT22;37900;52.996;6.278;2024-01-06T07:03:44;15.00;89.30
51863;DHT22;37900;52.996;6.278;2024-01-06T07:06:12;15.00;89.20
51863;DHT22;37900;52.996;6.278;2024-01-06T07:08:38;15.00;89.20
51863;DHT22;37900;52.996;6.278;2024-01-06T07:11:04;15.00;89.10
51863;DHT22;37900;52.996;6.278;2024-01-06T07:13:30;15.00;89.70
51863;DHT22;37900;52.996;6.278;2024-01-06T07:15:55;15.00;89.10
51863;DHT22;37900;52.996;6.278;2024-01-06T07:18:21;15.00;89.00
51863;DHT22;37900;52.996;6.278;2024-01-06T07:20:49;15.00;89.00
51863;DHT22;37900;52.996;6.278;2024-01-06T07:23:14;15.00;89.00
51863;DHT22;37900;52.996;6.278;2024-01-06T07:25:40;15.00;88.90
51863;DHT22;37900;52.996;6.278;2024-01-06T07:28:06;15.00;88.90
51863;DHT22;37900;52.996;6.278;2024-01-06T07:30:34;14.90;88.90
51863;DHT22;37900;52.996;6.278;2024-01-06T07:32:59;14.90;88.80
51863;DHT22;37900;52.996;6.278;2024-01-06T07:35:25;14.90;88.80
51863;DHT22;37900;52.996;6.278;2024-01-06T07:37:51;14.90;88.70
51863;DHT22;37900;52.996;6.278;2024-01-06T07:40:18;14.90;88.80
51863;DHT22;37900;52.996;6.278;2024-01-06T07:42:44;15.00;88.80
51863;DHT22;37900;52.996;6.278;2024-01-06T07:45:10;15.00;88.80
51863;DHT22;37900;52.996;6.278;2024-01-06T07:47:36;15.00;88.80
51863;DHT22;37900;52.996;6.278;2024-01-06T07:50:03;15.00;88.70
51863;DHT22;37900;52.996;6.278;2024-01-06T07:52:30;15.00;88.60
51863;DHT22;37900;52.996;6.278;2024-01-06T07:54:56;15.00;88.60
51863;DHT22;37900;52.996;6.278;2024-01-06T07:57:21;14.90;88.60
51863;DHT22;37900;52.996;6.278;2024-01-06T07:59:47;15.00;88.60
51863;DHT22;37900;52.996;6.278;2024-01-06T08:02:13;15.00;88.60
51863;DHT22;37900;52.996;6.278;2024-01-06T08:04:39;14.90;88.50
51863;DHT22;37900;52.996;6.278;2024-01-06T08:07:05;14.90;88.40
51863;DHT22;37900;52.996;6.278;2024-01-06T08:09:30;14.90;88.40
51863;DHT22;37900;52.996;6.278;2024-01-06T08:11:56;14.90;88.40
51863;DHT22;37900;52.996;6.278;2024-01-06T08:14:23;14.90;88.30
51863;DHT22;37900;52.996;6.278;2024-01-06T08:16:49;14.90;88.40
51863;DHT22;37900;52.996;6.278;2024-01-06T08:19:14;14.90;88.30
51863;DHT22;37900;52.996;6.278;2024-01-06T08:21:40;14.90;88.40
51863;DHT22;37900;52.996;6.278;2024-01-06T08:24:06;15.00;88.30
51863;DHT22;37900;52.996;6.278;2024-01-06T08:26:32;14.90;88.20
51863;DHT22;37900;52.996;6.278;2024-01-06T08:28:58;14.90;88.20
51863;DHT22;37900;52.996;6.278;2024-01-06T08:31:23;14.90;88.10
51863;DHT22;37900;52.996;6.278;2024-01-06T08:33:49;14.90;88.10
51863;DHT22;37900;52.996;6.278;2024-01-06T08:36:15;14.90;88.10
51863;DHT22;37900;52.996;6.278;2024-01-06T08:38:41;14.90;88.10
51863;DHT22;37900;52.996;6.278;2024-01-06T08:41:06;14.90;88.30
51863;DHT22;37900;52.996;6.278;2024-01-06T08:43:33;14.90;88.90
51863;DHT22;37900;52.996;6.278;2024-01-06T08:45:58;15.00;89.70
51863;DHT22;37900;52.996;6.278;2024-01-06T08:48:25;14.90;90.10
51863;DHT22;37900;52.996;6.278;2024-01-06T08:50:50;15.00;90.30
51863;DHT22;37900;52.996;6.278;2024-01-06T08:53:16;15.00;90.40
51863;DHT22;37900;52.996;6.278;2024-01-06T08:55:42;15.00;90.60
51863;DHT22;37900;52.996;6.278;2024-01-06T08:58:08;15.00;90.80
51863;DHT22;37900;52.996;6.278;2024-01-06T09:00:34;15.10;91.30
51863;DHT22;37900;52.996;6.278;2024-01-06T09:02:59;15.10;91.10
51863;DHT22;37900;52.996;6.278;2024-01-06T09:05:25;15.10;91.50
51863;DHT22;37900;52.996;6.278;2024-01-06T09:07:51;15.10;91.50
51863;DHT22;37900;52.996;6.278;2024-01-06T09:10:20;15.10;91.60
51863;DHT22;37900;52.996;6.278;2024-01-06T09:12:45;15.10;91.60
51863;DHT22;37900;52.996;6.278;2024-01-06T09:15:11;15.10;91.50
51863;DHT22;37900;52.996;6.278;2024-01-06T09:17:37;15.10;91.50
51863;DHT22;37900;52.996;6.278;2024-01-06T09:20:03;15.10;91.50
51863;DHT22;37900;52.996;6.278;2024-01-06T09:22:29;15.10;91.50
51863;DHT22;37900;52.996;6.278;2024-01-06T09:24:54;15.10;91.40
51863;DHT22;37900;52.996;6.278;2024-01-06T09:27:20;15.10;91.40
51863;DHT22;37900;52.996;6.278;2024-01-06T09:29:46;15.10;91.40
51863;DHT22;37900;52.996;6.278;2024-01-06T09:32:12;15.00;91.30
51863;DHT22;37900;52.996;6.278;2024-01-06T09:34:38;15.10;91.30
51863;DHT22;37900;52.996;6.278;2024-01-06T09:37:04;15.10;91.30
51863;DHT22;37900;52.996;6.278;2024-01-06T09:39:30;15.00;91.30
51863;DHT22;37900;52.996;6.278;2024-01-06T09:41:57;15.10;91.20
51863;DHT22;37900;52.996;6.278;2024-01-06T09:44:23;15.10;91.20
51863;DHT22;37900;52.996;6.278;2024-01-06T09:46:50;15.10;91.20
51863;DHT22;37900;52.996;6.278;2024-01-06T09:49:20;15.10;91.20
51863;DHT22;37900;52.996;6.278;2024-01-06T09:51:49;15.10;91.10
51863;DHT22;37900;52.996;6.278;2024-01-06T09:54:16;15.10;91.10
51863;DHT22;37900;52.996;6.278;2024-01-06T09:56:48;15.10;91.20
51863;DHT22;37900;52.996;6.278;2024-01-06T09:59:14;15.10;91.40
51863;DHT22;37900;52.996;6.278;2024-01-06T10:01:40;15.10;91.20
51863;DHT22;37900;52.996;6.278;2024-01-06T10:04:06;15.10;91.20
51863;DHT22;37900;52.996;6.278;2024-01-06T10:06:32;15.10;91.20
51863;DHT22;37900;52.996;6.278;2024-01-06T10:08:58;15.10;91.30
51863;DHT22;37900;52.996;6.278;2024-01-06T10:11:25;15.20;91.50
51863;DHT22;37900;52.996;6.278;2024-01-06T10:13:51;15.20;91.50
51863;DHT22;37900;52.996;6.278;2024-01-06T10:16:18;15.20;91.50
51863;DHT22;37900;52.996;6.278;2024-01-06T10:18:44;15.30;91.40
51863;DHT22;37900;52.996;6.278;2024-01-06T10:21:10;15.30;91.40
51863;DHT22;37900;52.996;6.278;2024-01-06T10:23:37;15.30;91.50
51863;DHT22;37900;52.996;6.278;2024-01-06T10:26:02;15.30;91.50
51863;DHT22;37900;52.996;6.278;2024-01-06T10:28:28;15.40;91.60
51863;DHT22;37900;52.996;6.278;2024-01-06T10:30:57;15.40;91.60
51863;DHT22;37900;52.996;6.278;2024-01-06T10:33:25;15.40;91.60
51863;DHT22;37900;52.996;6.278;2024-01-06T10:35:51;15.40;91.70
51863;DHT22;37900;52.996;6.278;2024-01-06T10:38:17;15.50;91.80
51863;DHT22;37900;52.996;6.278;2024-01-06T10:41:19;15.50;91.80
51863;DHT22;37900;52.996;6.278;2024-01-06T10:43:44;15.50;91.70
51863;DHT22;37900;52.996;6.278;2024-01-06T10:46:12;15.50;91.80
51863;DHT22;37900;52.996;6.278;2024-01-06T10:48:40;15.60;91.80
51863;DHT22;37900;52.996;6.278;2024-01-06T10:51:10;15.60;91.80
51863;DHT22;37900;52.996;6.278;2024-01-06T10:53:36;15.60;91.80
51863;DHT22;37900;52.996;6.278;2024-01-06T10:56:05;15.60;91.90
51863;DHT22;37900;52.996;6.278;2024-01-06T10:58:34;15.60;91.90
51863;DHT22;37900;52.996;6.278;2024-01-06T11:01:03;15.70;92.00
51863;DHT22;37900;52.996;6.278;2024-01-06T11:03:29;15.70;91.90
51863;DHT22;37900;52.996;6.278;2024-01-06T11:05:58;15.70;91.90
51863;DHT22;37900;52.996;6.278;2024-01-06T11:08:25;15.70;91.90
51863;DHT22;37900;52.996;6.278;2024-01-06T11:10:52;15.80;92.20
51863;DHT22;37900;52.996;6.278;2024-01-06T11:13:22;15.80;92.00
51863;DHT22;37900;52.996;6.278;2024-01-06T11:15:50;15.80;92.00
51863;DHT22;37900;52.996;6.278;2024-01-06T11:18:32;15.80;92.00
51863;DHT22;37900;52.996;6.278;2024-01-06T11:23:40;15.90;92.00
51863;DHT22;37900;52.996;6.278;2024-01-06T11:26:07;15.90;92.10
51863;DHT22;37900;52.996;6.278;2024-01-06T11:28:44;15.90;92.10
51863;DHT22;37900;52.996;6.278;2024-01-06T11:31:10;16.00;92.10
51863;DHT22;37900;52.996;6.278;2024-01-06T11:33:46;16.00;92.10
51863;DHT22;37900;52.996;6.278;2024-01-06T11:36:16;16.00;92.10
51863;DHT22;37900;52.996;6.278;2024-01-06T11:38:42;16.00;92.10
51863;DHT22;37900;52.996;6.278;2024-01-06T11:41:51;16.00;92.10
51863;DHT22;37900;52.996;6.278;2024-01-06T11:44:23;16.00;92.10
51863;DHT22;37900;52.996;6.278;2024-01-06T11:46:49;16.10;92.20
51863;DHT22;37900;52.996;6.278;2024-01-06T11:49:16;16.10;92.20
51863;DHT22;37900;52.996;6.278;2024-01-06T11:51:41;16.10;92.20
51863;DHT22;37900;52.996;6.278;2024-01-06T11:54:09;16.10;92.20
51863;DHT22;37900;52.996;6.278;2024-01-06T11:56:35;16.10;92.20
51863;DHT22;37900;52.996;6.278;2024-01-06T11:59:01;16.10;92.20
51863;DHT22;37900;52.996;6.278;2024-01-06T12:01:26;16.20;92.20
51863;DHT22;37900;52.996;6.278;2024-01-06T12:03:55;16.20;92.20
51863;DHT22;37900;52.996;6.278;2024-01-06T12:06:22;16.20;92.20
51863;DHT22;37900;52.996;6.278;2024-01-06T12:08:48;16.20;92.30
51863;DHT22;37900;52.996;6.278;2024-01-06T12:11:17;16.30;92.40
51863;DHT22;37900;52.996;6.278;2024-01-06T12:13:44;16.20;92.40
51863;DHT22;37900;52.996;6.278;2024-01-06T12:16:10;16.30;92.50
51863;DHT22;37900;52.996;6.278;2024-01-06T12:18:36;16.30;92.90
51863;DHT22;37900;52.996;6.278;2024-01-06T12:21:02;16.30;92.70
51863;DHT22;37900;52.996;6.278;2024-01-06T12:23:28;16.30;92.70
51863;DHT22;37900;52.996;6.278;2024-01-06T12:25:56;16.40;92.70
51863;DHT22;37900;52.996;6.278;2024-01-06T12:28:21;16.40;92.80
51863;DHT22;37900;52.996;6.278;2024-01-06T12:30:48;16.40;92.80
51863;DHT22;37900;52.996;6.278;2024-01-06T12:33:14;16.40;92.90
51863;DHT22;37900;52.996;6.278;2024-01-06T12:35:40;16.40;92.90
51863;DHT22;37900;52.996;6.278;2024-01-06T12:38:08;16.40;92.90
51863;DHT22;37900;52.996;6.278;2024-01-06T12:40:37;16.40;92.90
51863;DHT22;37900;52.996;6.278;2024-01-06T12:43:06;16.40;92.90
51863;DHT22;37900;52.996;6.278;2024-01-06T12:45:32;16.30;92.80
51863;DHT22;37900;52.996;6.278;2024-01-06T12:47:58;16.40;92.80
51863;DHT22;37900;52.996;6.278;2024-01-06T12:50:24;16.40;92.80
51863;DHT22;37900;52.996;6.278;2024-01-06T12:52:50;16.40;92.80
51863;DHT22;37900;52.996;6.278;2024-01-06T12:55:15;16.40;92.80
51863;DHT22;37900;52.996;6.278;2024-01-06T12:57:42;16.40;92.70
51863;DHT22;37900;52.996;6.278;2024-01-06T13:00:08;16.40;92.70
51863;DHT22;37900;52.996;6.278;2024-01-06T13:02:36;16.30;92.60
51863;DHT22;37900;52.996;6.278;2024-01-06T13:05:03;16.30;92.60
51863;DHT22;37900;52.996;6.278;2024-01-06T13:07:29;16.30;92.50
51863;DHT22;37900;52.996;6.278;2024-01-06T13:09:55;16.30;92.40
51863;DHT22;37900;52.996;6.278;2024-01-06T13:12:21;16.30;92.30
51863;DHT22;37900;52.996;6.278;2024-01-06T13:14:49;16.20;92.30
51863;DHT22;37900;52.996;6.278;2024-01-06T13:17:16;16.20;92.30
51863;DHT22;37900;52.996;6.278;2024-01-06T13:19:42;16.20;92.20
51863;DHT22;37900;52.996;6.278;2024-01-06T13:22:08;16.20;92.20
51863;DHT22;37900;52.996;6.278;2024-01-06T13:24:33;16.20;92.20
51863;DHT22;37900;52.996;6.278;2024-01-06T13:26:59;16.20;92.20
51863;DHT22;37900;52.996;6.278;2024-01-06T13:29:28;16.20;92.20
51863;DHT22;37900;52.996;6.278;2024-01-06T13:31:54;16.10;92.10
51863;DHT22;37900;52.996;6.278;2024-01-06T13:34:20;16.10;92.10
51863;DHT22;37900;52.996;6.278;2024-01-06T13:36:46;16.10;92.10
51863;DHT22;37900;52.996;6.278;2024-01-06T13:39:12;16.10;92.10
51863;DHT22;37900;52.996;6.278;2024-01-06T13:41:49;16.10;92.10
51863;DHT22;37900;52.996;6.278;2024-01-06T13:44:15;16.10;92.00
51863;DHT22;37900;52.996;6.278;2024-01-06T13:46:41;16.00;92.00
51863;DHT22;37900;52.996;6.278;2024-01-06T13:49:13;16.00;92.00
51863;DHT22;37900;52.996;6.278;2024-01-06T13:51:40;16.00;92.00
51863;DHT22;37900;52.996;6.278;2024-01-06T13:54:06;16.00;92.00
51863;DHT22;37900;52.996;6.278;2024-01-06T13:56:32;16.00;92.00
51863;DHT22;37900;52.996;6.278;2024-01-06T13:58:57;16.00;92.00
51863;DHT22;37900;52.996;6.278;2024-01-06T14:01:24;16.00;92.00
51863;DHT22;37900;52.996;6.278;2024-01-06T14:03:50;15.90;92.00
51863;DHT22;37900;52.996;6.278;2024-01-06T14:06:24;15.90;92.00
51863;DHT22;37900;52.996;6.278;2024-01-06T14:08:51;15.90;92.00
51863;DHT22;37900;52.996;6.278;2024-01-06T14:11:18;15.90;92.00
51863;DHT22;37900;52.996;6.278;2024-01-06T14:13:44;15.90;92.00
51863;DHT22;37900;52.996;6.278;2024-01-06T14:16:15;15.90;92.20
51863;DHT22;37900;52.996;6.278;2024-01-06T14:18:41;16.00;92.40
51863;DHT22;37900;52.996;6.278;2024-01-06T14:21:09;15.90;92.60
51863;DHT22;37900;52.996;6.278;2024-01-06T14:23:34;15.70;92.70
51863;DHT22;37900;52.996;6.278;2024-01-06T14:26:00;15.90;92.80
51863;DHT22;37900;52.996;6.278;2024-01-06T14:28:26;15.90;92.80
51863;DHT22;37900;52.996;6.278;2024-01-06T14:30:51;15.90;92.70
51863;DHT22;37900;52.996;6.278;2024-01-06T14:33:17;15.90;92.70
51863;DHT22;37900;52.996;6.278;2024-01-06T14:35:45;15.90;92.60
51863;DHT22;37900;52.996;6.278;2024-01-06T14:38:11;15.90;92.60
51863;DHT22;37900;52.996;6.278;2024-01-06T14:40:37;15.80;92.50
51863;DHT22;37900;52.996;6.278;2024-01-06T14:43:03;15.80;92.50
51863;DHT22;37900;52.996;6.278;2024-01-06T14:45:32;15.80;92.40
51863;DHT22;37900;52.996;6.278;2024-01-06T14:47:58;15.80;92.40
51863;DHT22;37900;52.996;6.278;2024-01-06T14:50:25;15.80;92.30
51863;DHT22;37900;52.996;6.278;2024-01-06T14:52:51;15.80;92.30
51863;DHT22;37900;52.996;6.278;2024-01-06T14:55:18;15.80;92.20
51863;DHT22;37900;52.996;6.278;2024-01-06T14:57:44;15.80;92.20
51863;DHT22;37900;52.996;6.278;2024-01-06T15:00:10;15.70;92.10
51863;DHT22;37900;52.996;6.278;2024-01-06T15:02:39;15.70;92.10
51863;DHT22;37900;52.996;6.278;2024-01-06T15:05:06;15.70;92.00
51863;DHT22;37900;52.996;6.278;2024-01-06T15:07:32;15.70;92.00
51863;DHT22;37900;52.996;6.278;2024-01-06T15:09:59;15.70;92.00
51863;DHT22;37900;52.996;6.278;2024-01-06T15:12:25;15.70;91.90
51863;DHT22;37900;52.996;6.278;2024-01-06T15:14:52;15.70;91.90
51863;DHT22;37900;52.996;6.278;2024-01-06T15:17:18;15.70;91.80
51863;DHT22;37900;52.996;6.278;2024-01-06T15:19:45;15.70;91.80
51863;DHT22;37900;52.996;6.278;2024-01-06T15:22:11;15.60;91.70
51863;DHT22;37900;52.996;6.278;2024-01-06T15:24:36;15.70;91.70
51863;DHT22;37900;52.996;6.278;2024-01-06T15:27:02;15.60;91.60
51863;DHT22;37900;52.996;6.278;2024-01-06T15:29:28;15.60;91.60